KDTS Airport Information

Runway Information
Runway 14 Length 4999 ft width 100 ft
Elevation 22 ft Threshold 0 ft Heading 142
Runway 32 Length 4999 ft Width 100 ft
Elevation 21 ft Threshold 0 ft Heading 322
Airport Frequencies
Type A/D Name EGLIN APP/ Frequency 132.1 MHZ
Type ASOS Name ASOS Frequency 133.925 MHZ
Type CLD Name EGLIN CLNC Frequency 121.6 MHZ
Type UNIC Name UNICOM Frequency 123.075 MHZ
Airport Navaids
Airport Weather Information & NOTAM
ADDS - METARS form results

(1756 UTC 18 July 2018)
 
METAR text: KDTS 181753Z 19007KT 10SM CLR 31/24 A2996 RMK AO2 SLP144 T03060244 10311 20256 58010 $
Conditions at: KDTS (DESTIN , FL, US) observed 1753 UTC 18 July 2018
Temperature: 30.6°C (87°F)
Dewpoint: 24.4°C (76°F) [RH = 70%]
Pressure (altimeter): 29.96 inches Hg (1014.6 mb)
[Sea-level pressure: 1014.4 mb]
Winds: from the S (190 degrees) at 8 MPH (7 knots; 3.6 m/s)
Visibility: 10 or more miles (16+ km)
Ceiling: at least 12,000 feet AGL
Clouds: sky clear below 12,000 feet AGL
Weather:
SOME DATA ABOVE MAY BE INACCURATE!!!
"$" is an indication the sensor requires maintenance